Time;durP1;ratioP1;P1;durP2;ratioP2;P2;SDS_P1;SDS_P2;PMS_P1;PMS_P2;Temp;Humidity;BMP_temperature;BMP_pressure;BME280_temperature;BME280_humidity;BME280_pressure;Samples;Min_cycle;Max_cycle;Signal;HPM_P1;HPM_P2
2023/03/18 00:02:17;;;;;;;;;;;;;;;;;;5084207;28;20394;-78
2023/03/18 00:04:42;;;;;;;;;;;;;;;;;;5091232;28;19922;-78
2023/03/18 00:07:08;;;;;;;;;;;;;;;;;;5091836;28;19999;-78
2023/03/18 00:09:33;;;;;;;;;;;;;;;;;;5101192;28;19908;-78
2023/03/18 00:11:58;;;;;;;;;;;;;;;;;;5092292;28;20265;-79
2023/03/18 00:14:23;;;;;;;;;;;;;;;;;;5077850;28;19919;-78
2023/03/18 00:16:49;;;;;;;;;;;;;;;;;;5083579;28;20284;-78
2023/03/18 00:19:14;;;;;;;;;;;;;;;;;;5086950;28;19970;-78
2023/03/18 00:21:39;;;;;;;;;;;;;;;;;;5089694;28;19930;-78
2023/03/18 00:24:05;;;;;;;;;;;;;;;;;;5088805;28;19934;-78
2023/03/18 00:26:30;;;;;;;;;;;;;;;;;;5076415;28;20029;-78
2023/03/18 00:28:56;;;;;;;;;;;;;;;;;;5100159;28;19919;-78
2023/03/18 00:31:21;;;;;;;;;;;;;;;;;;5088228;28;20002;-79
2023/03/18 00:33:46;;;;;;;;;;;;;;;;;;5086177;28;19916;-78
2023/03/18 00:36:15;;;;;;;;;;;;;;;;;;5074892;28;19912;-78
2023/03/18 00:38:41;;;;;;;;;;;;;;;;;;5072264;28;20382;-78
2023/03/18 00:41:14;;;;;;;;;;;;;;;;;;5071607;28;19994;-78
2023/03/18 00:43:45;;;;;;;;;;;;;;;;;;5072310;28;20352;-78
2023/03/18 00:46:11;;;;;;;;;;;;;;;;;;5087891;28;19919;-79
2023/03/18 00:48:36;;;;;;;;;;;;;;;;;;5072335;28;19920;-79
2023/03/18 00:51:01;;;;;;;;;;;;;;;;;;5089542;28;19912;-78
2023/03/18 00:53:26;;;;;;;;;;;;;;;;;;5093499;28;19917;-80
2023/03/18 00:55:52;;;;;;;;;;;;;;;;;;5084160;28;19913;-79
2023/03/18 00:58:18;;;;;;;;;;;;;;;;;;5078301;28;19923;-79
2023/03/18 01:00:44;;;;;;;;;;;;;;;;;;5072096;28;20355;-79
2023/03/18 01:03:09;;;;;;;;;;;;;;;;;;5079220;28;19918;-78
2023/03/18 01:05:34;;;;;;;;;;;;;;;;;;5092784;28;19909;-78
2023/03/18 01:08:00;;;;;;;;;;;;;;;;;;5073098;28;20296;-78
2023/03/18 01:10:26;;;;;;;;;;;;;;;;;;5084489;28;20352;-78
2023/03/18 01:12:51;;;;;;;;;;;;;;;;;;5088285;28;20380;-78
2023/03/18 01:15:16;;;;;;;;;;;;;;;;;;5079903;28;20361;-79
2023/03/18 01:17:41;;;;;;;;;;;;;;;;;;5078408;28;20295;-79
2023/03/18 01:20:06;;;;;;;;;;;;;;;;;;5080324;28;19917;-78
2023/03/18 01:22:31;;;;;;;;;;;;;;;;;;5082563;28;20011;-79
2023/03/18 01:24:57;;;;;;;;;;;;;;;;;;5076205;28;19924;-78
2023/03/18 01:27:23;;;;;;;;;;;;;;;;;;5096391;28;20434;-79
2023/03/18 01:29:48;;;;;;;;;;;;;;;;;;5090865;28;19912;-79
2023/03/18 01:32:13;;;;;;;;;;;;;;;;;;5082020;28;19912;-79
2023/03/18 01:34:40;;;;;;;;;;;;;;;;;;5099000;28;19912;-79
2023/03/18 01:37:05;;;;;;;;;;;;;;;;;;5087973;28;19913;-78
2023/03/18 01:39:30;;;;;;;;;;;;;;;;;;5072523;28;19919;-79
2023/03/18 01:41:55;;;;;;;;;;;;;;;;;;5070177;28;19939;-78
2023/03/18 01:44:20;;;;;;;;;;;;;;;;;;5072771;28;19965;-79
2023/03/18 01:46:46;;;;;;;;;;;;;;;;;;5083147;28;19951;-79
2023/03/18 01:49:11;;;;;;;;;;;;;;;;;;5081751;28;19921;-79
2023/03/18 01:51:36;;;;;;;;;;;;;;;;;;5071810;28;19955;-79
2023/03/18 01:54:02;;;;;;;;;;;;;;;;;;5070464;28;19943;-80
2023/03/18 01:56:27;;;;;;;;;;;;;;;;;;5072320;28;19920;-79
2023/03/18 01:58:52;;;;;;;;;;;;;;;;;;5071314;28;19917;-80
2023/03/18 02:01:17;;;;;;;;;;;;;;;;;;5074600;28;19920;-80
2023/03/18 02:03:43;;;;;;;;;;;;;;;;;;5086253;28;19915;-79
2023/03/18 02:06:08;;;;;;;;;;;;;;;;;;5108263;28;19921;-79
2023/03/18 02:08:34;;;;;;;;;;;;;;;;;;5084480;28;20292;-79
2023/03/18 02:10:59;;;;;;;;;;;;;;;;;;5081462;28;19920;-79
2023/03/18 02:13:25;;;;;;;;;;;;;;;;;;5072247;28;20284;-78
2023/03/18 02:15:51;;;;;;;;;;;;;;;;;;5087150;28;19919;-79
2023/03/18 02:18:16;;;;;;;;;;;;;;;;;;5071321;28;19962;-78
2023/03/18 02:20:41;;;;;;;;;;;;;;;;;;5072853;28;19921;-79
2023/03/18 02:23:07;;;;;;;;;;;;;;;;;;5089465;28;20003;-80
2023/03/18 02:25:32;;;;;;;;;;;;;;;;;;5091020;28;19912;-79
2023/03/18 02:27:58;;;;;;;;;;;;;;;;;;5083652;28;19962;-79
2023/03/18 02:30:23;;;;;;;;;;;;;;;;;;5071917;28;19912;-79
2023/03/18 02:32:48;;;;;;;;;;;;;;;;;;5071157;28;19956;-79
2023/03/18 02:35:13;;;;;;;;;;;;;;;;;;5087617;28;19912;-79
2023/03/18 02:37:38;;;;;;;;;;;;;;;;;;5080423;28;20361;-79
2023/03/18 02:40:03;;;;;;;;;;;;;;;;;;5072211;28;19913;-80
2023/03/18 02:42:29;;;;;;;;;;;;;;;;;;5070141;28;19913;-80
2023/03/18 02:44:54;;;;;;;;;;;;;;;;;;5077444;28;19965;-80
2023/03/18 02:47:19;;;;;;;;;;;;;;;;;;5071976;28;19913;-80
2023/03/18 02:49:45;;;;;;;;;;;;;;;;;;5071836;28;20011;-80
2023/03/18 02:52:10;;;;;;;;;;;;;;;;;;5072393;28;19921;-80
2023/03/18 02:54:35;;;;;;;;;;;;;;;;;;5092551;28;19981;-80
2023/03/18 02:57:01;;;;;;;;;;;;;;;;;;5074577;28;19912;-80
2023/03/18 02:59:26;;;;;;;;;;;;;;;;;;5079738;28;19912;-79
2023/03/18 03:01:52;;;;;;;;;;;;;;;;;;5074626;28;20236;-80
2023/03/18 03:04:17;;;;;;;;;;;;;;;;;;5112394;28;19965;-79
2023/03/18 03:06:42;;;;;;;;;;;;;;;;;;5100242;28;19912;-79
2023/03/18 03:09:07;;;;;;;;;;;;;;;;;;5091368;28;19959;-80
2023/03/18 03:11:32;;;;;;;;;;;;;;;;;;5081730;28;19923;-79
2023/03/18 03:13:57;;;;;;;;;;;;;;;;;;5071980;28;19913;-79
2023/03/18 03:16:23;;;;;;;;;;;;;;;;;;5080868;28;20384;-79
2023/03/18 03:18:48;;;;;;;;;;;;;;;;;;5093352;28;19919;-79
2023/03/18 03:21:13;;;;;;;;;;;;;;;;;;5081311;28;20018;-80
2023/03/18 03:23:38;;;;;;;;;;;;;;;;;;5091467;28;19916;-78
2023/03/18 03:26:03;;;;;;;;;;;;;;;;;;5093831;28;19912;-79
2023/03/18 03:28:29;;;;;;;;;;;;;;;;;;5094704;28;20280;-78
2023/03/18 03:30:54;;;;;;;;;;;;;;;;;;5083736;28;20376;-78
2023/03/18 03:33:20;;;;;;;;;;;;;;;;;;5073990;28;20008;-78
2023/03/18 03:35:45;;;;;;;;;;;;;;;;;;5073524;28;19966;-78
2023/03/18 03:38:11;;;;;;;;;;;;;;;;;;5074569;28;19948;-78
2023/03/18 03:40:37;;;;;;;;;;;;;;;;;;5075675;28;19916;-77
2023/03/18 03:43:02;;;;;;;;;;;;;;;;;;5076104;28;19916;-78
2023/03/18 03:45:28;;;;;;;;;;;;;;;;;;5083868;28;19912;-79
2023/03/18 03:47:53;;;;;;;;;;;;;;;;;;5078675;28;19924;-78
2023/03/18 03:50:18;;;;;;;;;;;;;;;;;;5074887;28;20353;-78
2023/03/18 03:52:43;;;;;;;;;;;;;;;;;;5081086;28;20364;-78
2023/03/18 03:55:08;;;;;;;;;;;;;;;;;;5089418;28;20022;-77
2023/03/18 03:57:34;;;;;;;;;;;;;;;;;;5091667;28;20361;-78
2023/03/18 03:59:59;;;;;;;;;;;;;;;;;;5093274;28;20356;-78
2023/03/18 04:02:26;;;;;;;;;;;;;;;;;;5078627;28;20277;-78
2023/03/18 04:04:51;;;;;;;;;;;;;;;;;;5074519;28;19912;-78
2023/03/18 04:07:17;;;;;;;;;;;;;;;;;;5084119;28;19935;-79
2023/03/18 04:09:42;;;;;;;;;;;;;;;;;;5093107;28;19912;-78
2023/03/18 04:12:07;;;;;;;;;;;;;;;;;;5090746;28;19923;-78
2023/03/18 04:14:32;;;;;;;;;;;;;;;;;;5079370;28;21167;-78
2023/03/18 04:16:59;;;;;;;;;;;;;;;;;;5080103;28;19981;-79
2023/03/18 04:19:24;;;;;;;;;;;;;;;;;;5084140;28;19908;-79
2023/03/18 04:21:50;;;;;;;;;;;;;;;;;;5083897;28;20369;-80
2023/03/18 04:24:15;;;;;;;;;;;;;;;;;;5075212;28;19913;-79
2023/03/18 04:26:40;;;;;;;;;;;;;;;;;;5074333;28;19923;-80
2023/03/18 04:29:05;;;;;;;;;;;;;;;;;;5073807;28;19909;-79
2023/03/18 04:31:31;;;;;;;;;;;;;;;;;;5076700;28;20062;-79
2023/03/18 04:33:58;;;;;;;;;;;;;;;;;;5072860;28;19966;-79
2023/03/18 04:36:23;;;;;;;;;;;;;;;;;;5078808;28;19912;-79
2023/03/18 04:38:49;;;;;;;;;;;;;;;;;;5079971;28;19919;-79
2023/03/18 04:41:14;;;;;;;;;;;;;;;;;;5073499;28;19915;-79
2023/03/18 04:43:39;;;;;;;;;;;;;;;;;;5071201;28;19912;-78
2023/03/18 04:46:04;;;;;;;;;;;;;;;;;;5077409;28;19912;-78
2023/03/18 04:48:29;;;;;;;;;;;;;;;;;;5088629;28;19926;-79
2023/03/18 04:50:54;;;;;;;;;;;;;;;;;;5071944;28;19963;-79
2023/03/18 04:53:20;;;;;;;;;;;;;;;;;;5082756;28;19921;-79
2023/03/18 04:55:45;;;;;;;;;;;;;;;;;;5076658;28;19912;-79
2023/03/18 04:58:11;;;;;;;;;;;;;;;;;;5072508;28;19908;-79
2023/03/18 05:00:36;;;;;;;;;;;;;;;;;;5074003;28;19917;-78
2023/03/18 05:03:02;;;;;;;;;;;;;;;;;;5089803;28;19999;-79
2023/03/18 05:05:27;;;;;;;;;;;;;;;;;;5084498;28;19928;-79
2023/03/18 05:07:53;;;;;;;;;;;;;;;;;;5079307;28;19966;-78
2023/03/18 05:10:18;;;;;;;;;;;;;;;;;;5077327;28;19920;-79
2023/03/18 05:12:43;;;;;;;;;;;;;;;;;;5073374;28;19919;-78
2023/03/18 05:15:08;;;;;;;;;;;;;;;;;;5072951;28;20387;-78
2023/03/18 05:17:34;;;;;;;;;;;;;;;;;;5081890;28;19912;-78
2023/03/18 05:19:59;;;;;;;;;;;;;;;;;;5090756;28;20129;-78
2023/03/18 05:22:25;;;;;;;;;;;;;;;;;;5091679;28;19912;-78
2023/03/18 05:24:50;;;;;;;;;;;;;;;;;;5073718;28;19919;-79
2023/03/18 05:27:15;;;;;;;;;;;;;;;;;;5072377;28;19923;-78
2023/03/18 05:29:41;;;;;;;;;;;;;;;;;;5074636;28;19959;-77
2023/03/18 05:32:06;;;;;;;;;;;;;;;;;;5102088;28;20026;-78
2023/03/18 05:34:31;;;;;;;;;;;;;;;;;;5096743;28;19998;-79
2023/03/18 05:36:56;;;;;;;;;;;;;;;;;;5084399;28;19912;-81
2023/03/18 05:39:21;;;;;;;;;;;;;;;;;;5083951;28;19912;-78
2023/03/18 05:41:46;;;;;;;;;;;;;;;;;;5083864;28;19916;-79
2023/03/18 05:44:12;;;;;;;;;;;;;;;;;;5080145;28;20329;-79
2023/03/18 05:46:37;;;;;;;;;;;;;;;;;;5076094;28;19916;-78
2023/03/18 05:49:02;;;;;;;;;;;;;;;;;;5083221;28;19927;-79
2023/03/18 05:51:27;;;;;;;;;;;;;;;;;;5109684;28;19969;-78
2023/03/18 05:53:52;;;;;;;;;;;;;;;;;;5084844;28;20361;-78
2023/03/18 05:56:18;;;;;;;;;;;;;;;;;;5092275;28;20003;-78
2023/03/18 05:58:43;;;;;;;;;;;;;;;;;;5072850;28;19920;-78
2023/03/18 06:01:08;;;;;;;;;;;;;;;;;;5078873;28;19923;-78
2023/03/18 06:03:33;;;;;;;;;;;;;;;;;;5072771;28;20074;-78
2023/03/18 06:05:59;;;;;;;;;;;;;;;;;;5074734;28;19912;-78
2023/03/18 06:08:24;;;;;;;;;;;;;;;;;;5087330;28;19912;-78
2023/03/18 06:10:49;;;;;;;;;;;;;;;;;;5092408;28;19987;-78
2023/03/18 06:13:15;;;;;;;;;;;;;;;;;;5071983;28;20515;-78
2023/03/18 06:15:40;;;;;;;;;;;;;;;;;;5070956;28;19943;-79
2023/03/18 06:18:05;;;;;;;;;;;;;;;;;;5071541;28;19908;-77
2023/03/18 06:20:31;;;;;;;;;;;;;;;;;;5088656;28;20352;-78
2023/03/18 06:22:56;;;;;;;;;;;;;;;;;;5078436;28;20442;-77
2023/03/18 06:25:22;;;;;;;;;;;;;;;;;;5094980;28;19912;-77
2023/03/18 06:27:47;;;;;;;;;;;;;;;;;;5088543;28;20357;-76
2023/03/18 06:30:12;;;;;;;;;;;;;;;;;;5084454;28;19916;-77
2023/03/18 06:32:37;;;;;;;;;;;;;;;;;;5075686;28;19916;-77
2023/03/18 06:35:02;;;;;;;;;;;;;;;;;;5087003;28;19912;-77
2023/03/18 06:37:27;;;;;;;;;;;;;;;;;;5077310;28;19916;-77
2023/03/18 06:39:53;;;;;;;;;;;;;;;;;;5089311;28;19935;-79
2023/03/18 06:42:18;;;;;;;;;;;;;;;;;;5093669;28;20337;-76
2023/03/18 06:44:49;;;;;;;;;;;;;;;;;;5091224;28;19916;-77
2023/03/18 06:47:14;;;;;;;;;;;;;;;;;;5081778;28;19971;-78
2023/03/18 06:49:40;;;;;;;;;;;;;;;;;;5076136;28;20381;-77
2023/03/18 06:52:05;;;;;;;;;;;;;;;;;;5089977;28;19925;-77
2023/03/18 06:54:31;;;;;;;;;;;;;;;;;;5093846;28;19908;-79
2023/03/18 06:56:56;;;;;;;;;;;;;;;;;;5075354;28;19952;-76
2023/03/18 06:59:22;;;;;;;;;;;;;;;;;;5075830;28;19948;-77
2023/03/18 07:01:48;;;;;;;;;;;;;;;;;;5079968;28;19920;-76
2023/03/18 07:04:16;;;;;;;;;;;;;;;;;;5079799;28;19913;-77
2023/03/18 07:06:41;;;;;;;;;;;;;;;;;;5076209;28;19923;-77
2023/03/18 07:09:09;;;;;;;;;;;;;;;;;;5079270;28;19991;-79
2023/03/18 07:11:34;;;;;;;;;;;;;;;;;;5074930;28;20227;-77
2023/03/18 07:14:00;;;;;;;;;;;;;;;;;;5091684;28;20419;-76
2023/03/18 07:16:26;;;;;;;;;;;;;;;;;;5081885;28;19912;-76
2023/03/18 07:18:51;;;;;;;;;;;;;;;;;;5084805;28;19978;-76
2023/03/18 07:21:16;;;;;;;;;;;;;;;;;;5076128;28;19942;-78
2023/03/18 07:23:41;;;;;;;;;;;;;;;;;;5073610;28;19919;-77
2023/03/18 07:26:07;;;;;;;;;;;;;;;;;;5074677;28;19912;-77
2023/03/18 07:28:33;;;;;;;;;;;;;;;;;;5077000;28;19990;-78
2023/03/18 07:30:58;;;;;;;;;;;;;;;;;;5075457;28;19916;-78
2023/03/18 07:33:23;;;;;;;;;;;;;;;;;;5094347;28;19919;-77
2023/03/18 07:35:48;;;;;;;;;;;;;;;;;;5085204;28;20264;-79
2023/03/18 07:38:14;;;;;;;;;;;;;;;;;;5080782;28;19919;-78
2023/03/18 07:40:39;;;;;;;;;;;;;;;;;;5080519;28;19913;-78
2023/03/18 07:43:04;;;;;;;;;;;;;;;;;;5073249;28;19955;-77
2023/03/18 07:45:30;;;;;;;;;;;;;;;;;;5083007;28;20257;-78
2023/03/18 07:47:55;;;;;;;;;;;;;;;;;;5086061;28;20003;-79
2023/03/18 07:50:20;;;;;;;;;;;;;;;;;;5072911;28;19917;-76
2023/03/18 07:52:45;;;;;;;;;;;;;;;;;;5075109;28;19974;-76
2023/03/18 07:55:11;;;;;;;;;;;;;;;;;;5075039;28;20368;-76
2023/03/18 07:57:36;;;;;;;;;;;;;;;;;;5074630;28;20058;-75
2023/03/18 08:00:03;;;;;;;;;;;;;;;;;;5076638;28;19919;-76
2023/03/18 08:02:28;;;;;;;;;;;;;;;;;;5080580;28;20292;-77
2023/03/18 08:04:53;;;;;;;;;;;;;;;;;;5073800;28;19909;-79
2023/03/18 08:07:18;;;;;;;;;;;;;;;;;;5081821;28;19921;-78
2023/03/18 08:09:44;;;;;;;;;;;;;;;;;;5089942;28;20288;-78
2023/03/18 08:12:09;;;;;;;;;;;;;;;;;;5074211;28;19958;-79
2023/03/18 08:14:35;;;;;;;;;;;;;;;;;;5075458;28;19920;-78
2023/03/18 08:17:01;;;;;;;;;;;;;;;;;;5076631;28;19912;-78
2023/03/18 08:19:26;;;;;;;;;;;;;;;;;;5089664;28;19908;-78
2023/03/18 08:21:51;;;;;;;;;;;;;;;;;;5075869;28;19927;-80
2023/03/18 08:24:17;;;;;;;;;;;;;;;;;;5074928;28;19913;-79
2023/03/18 08:26:42;;;;;;;;;;;;;;;;;;5085969;28;19920;-79
2023/03/18 08:29:07;;;;;;;;;;;;;;;;;;5080953;28;19925;-78
2023/03/18 08:31:32;;;;;;;;;;;;;;;;;;5074931;28;19916;-79
2023/03/18 08:33:59;;;;;;;;;;;;;;;;;;5074160;28;19959;-78
2023/03/18 08:36:24;;;;;;;;;;;;;;;;;;5076856;28;19955;-79
2023/03/18 08:38:49;;;;;;;;;;;;;;;;;;5089824;28;19963;-80
2023/03/18 08:41:15;;;;;;;;;;;;;;;;;;5088219;28;19915;-77
2023/03/18 08:43:41;;;;;;;;;;;;;;;;;;5070875;28;19948;-83
2023/03/18 09:19:41;;;;;;;;;;;;;;;;;;1334438;22;20685;-82
2023/03/18 09:22:07;;;;;;;;;;;;;;;;;;5027641;28;19956;-80
2023/03/18 09:24:33;;;;;;;;;;;;;;;;;;5028996;28;19963;-81
2023/03/18 09:26:59;;;;;;;;;;;;;;;;;;5012959;28;20397;-81
2023/03/18 09:29:24;;;;;;;;;;;;;;;;;;5026615;28;19909;-80
2023/03/18 09:31:49;;;;;;;;;;;;;;;;;;4999100;28;19953;-81
2023/03/18 09:34:14;;;;;;;;;;;;;;;;;;5011005;28;19913;-83
2023/03/18 09:36:49;;;;;;;;;;;;;;;;;;5017949;28;20403;-85
2023/03/18 09:39:14;;;;;;;;;;;;;;;;;;5030199;28;20351;-84
2023/03/18 09:41:47;;;;;;;;;;;;;;;;;;5011755;28;19918;-85
2023/03/18 09:44:13;;;;;;;;;;;;;;;;;;5028742;28;19960;-85
2023/03/18 09:46:42;;;;;;;;;;;;;;;;;;5012481;28;19921;-85
2023/03/18 09:49:12;;;;;;;;;;;;;;;;;;5028224;28;20399;-85
2023/03/18 09:51:50;;;;;;;;;;;;;;;;;;5023460;28;20044;-85
2023/03/18 09:54:25;;;;;;;;;;;;;;;;;;5027342;28;19968;-85
2023/03/18 09:56:53;;;;;;;;;;;;;;;;;;5014592;28;19975;-85
2023/03/18 09:59:32;;;;;;;;;;;;;;;;;;;;;
2023/03/18 10:02:09;;;;;;;;;;;;;;;;;;5009111;28;19929;-85
2023/03/18 10:04:35;;;;;;;;;;;;;;;;;;5025910;28;19921;-82
2023/03/18 10:07:00;;;;;;;;;;;;;;;;;;5011870;28;19913;-82
2023/03/18 10:09:25;;;;;;;;;;;;;;;;;;5011867;28;19917;-82
2023/03/18 10:11:51;;;;;;;;;;;;;;;;;;5012529;28;19913;-85
2023/03/18 10:14:16;;;;;;;;;;;;;;;;;;5025189;28;19913;-83
2023/03/18 10:16:41;;;;;;;;;;;;;;;;;;5027815;28;19964;-83
2023/03/18 10:19:07;;;;;;;;;;;;;;;;;;5026827;28;19919;-82
2023/03/18 10:21:35;;;;;;;;;;;;;;;;;;5009057;28;19929;-82
2023/03/18 10:24:00;;;;;;;;;;;;;;;;;;5026132;28;19913;-83
2023/03/18 10:26:28;;;;;;;;;;;;;;;;;;5011762;28;20013;-83
2023/03/18 10:28:55;;;;;;;;;;;;;;;;;;5012540;28;20429;-83
2023/03/18 10:34:05;;;;;;;;;;;;;;;;;;5010040;28;19928;-81
2023/03/18 10:36:30;;;;;;;;;;;;;;;;;;5027911;28;19960;-81
2023/03/18 10:38:55;;;;;;;;;;;;;;;;;;5009569;28;20351;-81
2023/03/18 10:41:23;;;;;;;;;;;;;;;;;;5025282;28;19918;-81
2023/03/18 10:43:48;;;;;;;;;;;;;;;;;;5012735;28;20000;-82
2023/03/18 10:46:16;;;;;;;;;;;;;;;;;;5010284;28;19996;-82
2023/03/18 10:48:41;;;;;;;;;;;;;;;;;;5027023;28;19917;-82
2023/03/18 10:51:07;;;;;;;;;;;;;;;;;;5024408;28;20013;-82
2023/03/18 10:53:32;;;;;;;;;;;;;;;;;;5027216;28;20362;-81
2023/03/18 10:55:57;;;;;;;;;;;;;;;;;;5006957;28;20381;-84
2023/03/18 10:58:41;;;;;;;;;;;;;;;;;;5010475;28;19922;-88
2023/03/18 11:06:41;;;;;;;;;;;;;;;;;;4987996;28;20024;-84
2023/03/18 11:09:09;;;;;;;;;;;;;;;;;;4974207;28;20100;-86
2023/03/18 11:11:34;;;;;;;;;;;;;;;;;;4959838;28;19929;-82
2023/03/18 11:14:01;;;;;;;;;;;;;;;;;;4980103;28;19925;-81
2023/03/18 11:16:28;;;;;;;;;;;;;;;;;;4987928;28;20021;-83
2023/03/18 11:18:53;;;;;;;;;;;;;;;;;;4986406;28;19914;-81
2023/03/18 11:21:19;;;;;;;;;;;;;;;;;;4964942;28;19929;-81
2023/03/18 11:23:54;;;;;;;;;;;;;;;;;;4958026;28;20005;-81
2023/03/18 11:26:20;;;;;;;;;;;;;;;;;;4993615;28;19929;-81
2023/03/18 11:28:46;;;;;;;;;;;;;;;;;;4989737;28;19918;-82
2023/03/18 11:31:11;;;;;;;;;;;;;;;;;;4981514;28;20283;-81
2023/03/18 11:33:37;;;;;;;;;;;;;;;;;;4974240;28;19914;-83
2023/03/18 11:36:03;;;;;;;;;;;;;;;;;;4975701;28;19910;-85
2023/03/18 11:38:28;;;;;;;;;;;;;;;;;;4991186;28;19921;-84
2023/03/18 11:40:53;;;;;;;;;;;;;;;;;;5001969;28;19918;-85
2023/03/18 11:43:18;;;;;;;;;;;;;;;;;;5013534;28;19992;-86
2023/03/18 11:45:44;;;;;;;;;;;;;;;;;;5029139;28;19914;-87
2023/03/18 11:48:09;;;;;;;;;;;;;;;;;;5037308;28;20278;-84
2023/03/18 11:50:35;;;;;;;;;;;;;;;;;;5024804;28;19921;-82
2023/03/18 11:53:00;;;;;;;;;;;;;;;;;;5018178;28;19917;-83
2023/03/18 11:55:26;;;;;;;;;;;;;;;;;;5030774;28;19960;-81
2023/03/18 11:57:51;;;;;;;;;;;;;;;;;;5015406;28;19917;-83
2023/03/18 12:00:16;;;;;;;;;;;;;;;;;;5026446;28;19956;-83
2023/03/18 12:02:41;;;;;;;;;;;;;;;;;;5004939;28;19922;-81
2023/03/18 12:05:08;;;;;;;;;;;;;;;;;;5029494;28;19948;-82
2023/03/18 12:07:36;;;;;;;;;;;;;;;;;;5029291;28;20004;-82
2023/03/18 12:10:06;;;;;;;;;;;;;;;;;;5011967;28;19913;-84
2023/03/18 12:12:37;;;;;;;;;;;;;;;;;;5029084;28;19914;-89
2023/03/18 12:15:08;;;;;;;;;;;;;;;;;;5028823;28;19913;-88
2023/03/18 12:17:34;;;;;;;;;;;;;;;;;;5015816;28;19936;-89
2023/03/18 12:22:47;;;;;;;;;;;;;;;;;;5011474;28;19969;-86
2023/03/18 12:25:13;;;;;;;;;;;;;;;;;;5012351;28;19914;-87
2023/03/18 12:27:38;;;;;;;;;;;;;;;;;;5030914;28;19920;-86
2023/03/18 12:30:03;;;;;;;;;;;;;;;;;;5028939;28;19913;-87
2023/03/18 12:32:28;;;;;;;;;;;;;;;;;;5028969;28;20951;-90
2023/03/18 12:34:54;;;;;;;;;;;;;;;;;;5029443;28;19921;-87
2023/03/18 12:37:27;;;;;;;;;;;;;;;;;;5030062;28;19929;-90
2023/03/18 12:39:52;;;;;;;;;;;;;;;;;;5029788;28;19920;-88
2023/03/18 12:42:18;;;;;;;;;;;;;;;;;;5028740;28;19917;-87
2023/03/18 12:44:43;;;;;;;;;;;;;;;;;;5014624;28;20004;-87
2023/03/18 12:47:09;;;;;;;;;;;;;;;;;;5012797;28;19987;-87
2023/03/18 12:49:34;;;;;;;;;;;;;;;;;;5029152;28;20374;-84
2023/03/18 12:51:59;;;;;;;;;;;;;;;;;;5027356;28;20394;-87
2023/03/18 12:54:27;;;;;;;;;;;;;;;;;;5014461;28;20013;-87
2023/03/18 12:56:52;;;;;;;;;;;;;;;;;;5022722;28;20185;-85
2023/03/18 12:59:20;;;;;;;;;;;;;;;;;;5029262;28;20368;-88
2023/03/18 13:01:48;;;;;;;;;;;;;;;;;;5029476;28;19921;-87
2023/03/18 13:04:13;;;;;;;;;;;;;;;;;;5014084;28;19960;-90
2023/03/18 13:06:39;;;;;;;;;;;;;;;;;;5015803;28;19910;-88
2023/03/18 13:09:07;;;;;;;;;;;;;;;;;;5031462;28;20328;-91
2023/03/18 13:11:37;;;;;;;;;;;;;;;;;;5031456;28;20313;-91
2023/03/18 13:14:02;;;;;;;;;;;;;;;;;;5030112;28;20372;-90
2023/03/18 13:16:31;;;;;;;;;;;;;;;;;;5032463;28;20377;-91
2023/03/18 13:18:56;;;;;;;;;;;;;;;;;;5031189;28;19913;-91
2023/03/18 13:21:21;;;;;;;;;;;;;;;;;;5012051;28;19944;-88
2023/03/18 13:24:06;;;;;;;;;;;;;;;;;;;;;
2023/03/18 13:29:17;;;;;;;;;;;;;;;;;;4991460;22;20382;-83
2023/03/18 13:31:42;;;;;;;;;;;;;;;;;;5031456;28;19928;-82
2023/03/18 13:34:08;;;;;;;;;;;;;;;;;;5029759;28;19913;-82
2023/03/18 13:36:33;;;;;;;;;;;;;;;;;;5031981;28;19913;-83
2023/03/18 13:38:58;;;;;;;;;;;;;;;;;;5031465;28;19919;-84
2023/03/18 13:41:24;;;;;;;;;;;;;;;;;;5032205;28;19917;-82
2023/03/18 13:43:50;;;;;;;;;;;;;;;;;;5030443;28;20000;-82
2023/03/18 13:46:15;;;;;;;;;;;;;;;;;;5026258;28;19913;-82
2023/03/18 13:48:40;;;;;;;;;;;;;;;;;;5030071;28;19924;-82
2023/03/18 13:51:06;;;;;;;;;;;;;;;;;;5031524;28;19924;-82
2023/03/18 13:53:31;;;;;;;;;;;;;;;;;;5029834;28;20391;-82
2023/03/18 13:55:56;;;;;;;;;;;;;;;;;;5029310;28;19920;-82
2023/03/18 13:58:22;;;;;;;;;;;;;;;;;;5030736;28;19924;-81
2023/03/18 14:00:47;;;;;;;;;;;;;;;;;;5030925;28;20051;-82
2023/03/18 14:03:13;;;;;;;;;;;;;;;;;;5030375;28;20000;-82
2023/03/18 14:05:39;;;;;;;;;;;;;;;;;;5022753;28;19917;-82
2023/03/18 14:08:04;;;;;;;;;;;;;;;;;;5030396;28;19917;-82
2023/03/18 14:10:30;;;;;;;;;;;;;;;;;;5026368;28;19972;-82
2023/03/18 14:12:57;;;;;;;;;;;;;;;;;;5030664;28;19913;-82
2023/03/18 14:15:22;;;;;;;;;;;;;;;;;;5029403;28;19921;-82
2023/03/18 14:17:48;;;;;;;;;;;;;;;;;;5027195;28;20004;-83
2023/03/18 14:20:13;;;;;;;;;;;;;;;;;;5029263;28;19921;-83
2023/03/18 14:22:38;;;;;;;;;;;;;;;;;;5023780;28;19917;-83
2023/03/18 14:25:03;;;;;;;;;;;;;;;;;;5027948;28;19921;-83
2023/03/18 14:27:29;;;;;;;;;;;;;;;;;;5031214;28;19966;-82
2023/03/18 14:29:55;;;;;;;;;;;;;;;;;;5031795;28;19928;-82
2023/03/18 14:32:20;;;;;;;;;;;;;;;;;;5027937;28;19921;-83
2023/03/18 14:34:46;;;;;;;;;;;;;;;;;;5031730;28;20005;-83
2023/03/18 14:37:11;;;;;;;;;;;;;;;;;;5027827;28;19913;-83
2023/03/18 14:39:37;;;;;;;;;;;;;;;;;;5030534;28;20016;-83
2023/03/18 14:42:02;;;;;;;;;;;;;;;;;;5031423;28;20374;-82
2023/03/18 14:44:27;;;;;;;;;;;;;;;;;;5029916;28;19909;-83
2023/03/18 14:46:52;;;;;;;;;;;;;;;;;;5026108;28;20399;-83
2023/03/18 14:49:17;;;;;;;;;;;;;;;;;;5024486;28;19913;-83
2023/03/18 14:51:42;;;;;;;;;;;;;;;;;;5027181;28;20441;-82
2023/03/18 14:54:08;;;;;;;;;;;;;;;;;;5030938;28;19913;-82
2023/03/18 14:56:33;;;;;;;;;;;;;;;;;;5029214;28;19940;-81
2023/03/18 14:58:58;;;;;;;;;;;;;;;;;;5028817;28;20330;-83
2023/03/18 15:01:25;;;;;;;;;;;;;;;;;;5031925;28;19924;-82
2023/03/18 15:03:58;;;;;;;;;;;;;;;;;;5034039;28;20000;-82
2023/03/18 15:06:24;;;;;;;;;;;;;;;;;;5034058;28;20020;-83
2023/03/18 15:08:49;;;;;;;;;;;;;;;;;;5031836;28;19913;-81
2023/03/18 15:11:15;;;;;;;;;;;;;;;;;;5033410;28;19975;-83
2023/03/18 15:13:40;;;;;;;;;;;;;;;;;;5033059;28;19917;-83
2023/03/18 15:16:05;;;;;;;;;;;;;;;;;;5033318;28;19952;-82
2023/03/18 15:18:31;;;;;;;;;;;;;;;;;;5032776;28;19920;-82
2023/03/18 15:20:56;;;;;;;;;;;;;;;;;;5031890;28;19913;-83
2023/03/18 15:23:21;;;;;;;;;;;;;;;;;;5034761;28;19958;-82
2023/03/18 15:25:47;;;;;;;;;;;;;;;;;;5031583;28;20018;-82
2023/03/18 15:28:12;;;;;;;;;;;;;;;;;;5034672;28;19913;-82
2023/03/18 15:30:37;;;;;;;;;;;;;;;;;;5032065;28;19986;-81
2023/03/18 15:33:02;;;;;;;;;;;;;;;;;;5034025;28;20597;-82
2023/03/18 15:35:30;;;;;;;;;;;;;;;;;;5031663;28;19921;-81
2023/03/18 15:37:55;;;;;;;;;;;;;;;;;;5034144;28;20355;-81
2023/03/18 15:40:20;;;;;;;;;;;;;;;;;;5032299;28;19913;-82
2023/03/18 15:42:45;;;;;;;;;;;;;;;;;;5032939;28;19916;-82
2023/03/18 15:45:10;;;;;;;;;;;;;;;;;;5033816;28;19916;-82
2023/03/18 15:47:36;;;;;;;;;;;;;;;;;;5030799;28;19917;-82
2023/03/18 15:50:01;;;;;;;;;;;;;;;;;;5031934;28;19927;-84
2023/03/18 15:52:26;;;;;;;;;;;;;;;;;;5033349;28;19999;-82
2023/03/18 15:54:52;;;;;;;;;;;;;;;;;;5033971;28;19909;-83
2023/03/18 15:57:17;;;;;;;;;;;;;;;;;;5031861;28;20003;-82
2023/03/18 15:59:42;;;;;;;;;;;;;;;;;;5033457;28;20037;-82
2023/03/18 16:02:08;;;;;;;;;;;;;;;;;;5032574;28;19952;-82
2023/03/18 16:04:35;;;;;;;;;;;;;;;;;;5032818;28;19939;-83
2023/03/18 16:07:00;;;;;;;;;;;;;;;;;;5031605;28;19910;-83
2023/03/18 16:09:25;;;;;;;;;;;;;;;;;;5026311;28;19959;-82
2023/03/18 16:11:50;;;;;;;;;;;;;;;;;;5030569;28;19968;-82
2023/03/18 16:14:15;;;;;;;;;;;;;;;;;;5032610;28;20389;-83
2023/03/18 16:16:41;;;;;;;;;;;;;;;;;;5031870;28;19913;-83
2023/03/18 16:19:09;;;;;;;;;;;;;;;;;;5028038;28;19924;-82
2023/03/18 16:21:35;;;;;;;;;;;;;;;;;;5030597;28;19918;-82
2023/03/18 16:24:00;;;;;;;;;;;;;;;;;;5032672;28;19919;-83
2023/03/18 16:26:26;;;;;;;;;;;;;;;;;;5032542;28;20385;-82
2023/03/18 16:28:51;;;;;;;;;;;;;;;;;;5017873;28;19921;-82
2023/03/18 16:31:17;;;;;;;;;;;;;;;;;;5029884;28;20081;-82
2023/03/18 16:33:45;;;;;;;;;;;;;;;;;;5030773;28;19913;-81
2023/03/18 16:36:10;;;;;;;;;;;;;;;;;;5034186;28;19909;-82
2023/03/18 16:38:36;;;;;;;;;;;;;;;;;;5030624;28;19967;-81
2023/03/18 16:41:01;;;;;;;;;;;;;;;;;;5033791;28;19913;-82
2023/03/18 16:43:27;;;;;;;;;;;;;;;;;;5029011;28;19913;-82
2023/03/18 16:45:52;;;;;;;;;;;;;;;;;;5032475;28;19945;-83
2023/03/18 16:48:17;;;;;;;;;;;;;;;;;;5031233;28;19920;-83
2023/03/18 16:50:45;;;;;;;;;;;;;;;;;;5031632;28;20292;-82
2023/03/18 16:53:12;;;;;;;;;;;;;;;;;;5030888;28;19920;-82
2023/03/18 16:55:37;;;;;;;;;;;;;;;;;;5031639;28;19967;-81
2023/03/18 16:58:02;;;;;;;;;;;;;;;;;;5014802;28;19949;-82
2023/03/18 17:00:33;;;;;;;;;;;;;;;;;;5019303;28;19909;-83
2023/03/18 17:02:58;;;;;;;;;;;;;;;;;;5031914;28;20264;-82
2023/03/18 17:05:26;;;;;;;;;;;;;;;;;;5030156;28;19909;-83
2023/03/18 17:07:52;;;;;;;;;;;;;;;;;;5029866;28;19920;-84
2023/03/18 17:10:17;;;;;;;;;;;;;;;;;;5030705;28;19909;-82
2023/03/18 17:12:43;;;;;;;;;;;;;;;;;;5032036;28;19924;-82
2023/03/18 17:15:08;;;;;;;;;;;;;;;;;;5031070;28;20270;-83
2023/03/18 17:17:40;;;;;;;;;;;;;;;;;;5030867;28;19924;-82
2023/03/18 17:20:09;;;;;;;;;;;;;;;;;;5031492;28;19917;-84
2023/03/18 17:22:34;;;;;;;;;;;;;;;;;;5032846;28;19920;-83
2023/03/18 17:25:01;;;;;;;;;;;;;;;;;;5030979;28;19913;-83